createdAt,value
2023-05-07T00:02:26.691Z,98721.81
2023-05-07T00:04:53.361Z,98708.31
2023-05-07T00:07:19.809Z,98713.13
2023-05-07T00:09:46.178Z,98717.53
2023-05-07T00:12:12.622Z,98711.63
2023-05-07T00:14:38.970Z,98712.66
2023-05-07T00:17:05.369Z,98708.53
2023-05-07T00:19:32.753Z,98701.91
2023-05-07T00:21:59.313Z,98702.22
2023-05-07T00:24:25.821Z,98707.22
2023-05-07T00:26:53.639Z,98698.72
2023-05-07T00:29:20.051Z,98696.94
2023-05-07T00:31:46.507Z,98706.34
2023-05-07T00:34:12.889Z,98706.56
2023-05-07T00:36:39.288Z,98700.06
2023-05-07T00:39:05.683Z,98704.38
2023-05-07T00:41:32.071Z,98706.06
2023-05-07T00:43:58.774Z,98712.91
2023-05-07T00:46:25.398Z,98712.09
2023-05-07T00:48:51.956Z,98707.22
2023-05-07T00:51:18.788Z,98702.44
2023-05-07T00:53:46.132Z,98704.16
2023-05-07T00:56:12.943Z,98707.84
2023-05-07T00:58:39.615Z,98707.97
2023-05-07T01:01:05.994Z,98704.44
2023-05-07T01:03:32.524Z,98709.94
2023-05-07T01:06:00.671Z,98723.16
2023-05-07T01:08:30.391Z,98714.13
2023-05-07T01:10:58.183Z,98719.47
2023-05-07T01:13:25.706Z,98713.97
2023-05-07T01:15:52.304Z,98722.25
2023-05-07T01:18:18.754Z,98722.09
2023-05-07T01:20:46.069Z,98719.25
2023-05-07T01:23:13.314Z,98709.28
2023-05-07T01:25:39.692Z,98719.63
2023-05-07T01:28:06.788Z,98710.88
2023-05-07T01:30:35.651Z,98713.06
2023-05-07T01:33:02.074Z,98716.06
2023-05-07T01:35:33.348Z,98718.63
2023-05-07T01:37:59.755Z,98722.47
2023-05-07T01:40:26.805Z,98726.31
2023-05-07T01:42:53.899Z,98726.69
2023-05-07T01:45:20.662Z,98720.09
2023-05-07T01:47:47.511Z,98719.34
2023-05-07T01:50:16.752Z,98721.16
2023-05-07T01:52:43.192Z,98720.47
2023-05-07T01:55:09.830Z,98724.88
2023-05-07T01:57:36.497Z,98723.38
2023-05-07T02:00:07.177Z,98726.19
2023-05-07T02:02:34.069Z,98728.47
2023-05-07T02:05:01.395Z,98726.38
2023-05-07T02:07:28.504Z,98729.47
2023-05-07T02:09:56.320Z,98724.44
2023-05-07T02:12:23.691Z,98719.41
2023-05-07T02:14:50.827Z,98716.69
2023-05-07T02:17:17.216Z,98721.94
2023-05-07T02:19:43.552Z,98721.31
2023-05-07T02:22:10.814Z,98719.41
2023-05-07T02:24:37.187Z,98730.56
2023-05-07T02:27:04.238Z,98725.78
2023-05-07T02:29:30.886Z,98732.91
2023-05-07T02:31:57.309Z,98735.56
2023-05-07T02:34:24.760Z,98737.22
2023-05-07T02:36:51.168Z,98737.53
2023-05-07T02:39:17.804Z,98733.81
2023-05-07T02:41:44.183Z,98739.19
2023-05-07T02:44:10.614Z,98740.84
2023-05-07T02:46:36.978Z,98748.75
2023-05-07T02:49:03.353Z,98744.59
2023-05-07T02:51:31.557Z,98744.88
2023-05-07T02:53:58.130Z,98748.75
2023-05-07T02:56:26.920Z,98749.03
2023-05-07T02:58:53.325Z,98737.41
2023-05-07T03:01:19.862Z,98737.75
2023-05-07T03:03:46.236Z,98746.22
2023-05-07T03:06:12.615Z,98741.31
2023-05-07T03:08:38.970Z,98739.25
2023-05-07T03:11:05.927Z,98733.44
2023-05-07T03:13:32.295Z,98735.41
2023-05-07T03:15:58.677Z,98743.25
2023-05-07T03:18:25.048Z,98741.47
2023-05-07T03:20:51.484Z,98738.03
2023-05-07T03:23:17.858Z,98734.19
2023-05-07T03:25:44.254Z,98742.81
2023-05-07T03:28:10.601Z,98734.19
2023-05-07T03:30:36.996Z,98741.75
2023-05-07T03:33:03.438Z,98746.09
2023-05-07T03:35:29.836Z,98748.16
2023-05-07T03:37:56.519Z,98748.34
2023-05-07T03:40:22.886Z,98750.38
2023-05-07T03:42:49.254Z,98752.19
2023-05-07T03:45:15.704Z,98743.28
2023-05-07T03:47:42.325Z,98744.91
2023-05-07T03:50:09.519Z,98751.31
2023-05-07T03:52:36.270Z,98749.97
2023-05-07T03:55:02.641Z,98748.03
2023-05-07T03:57:28.985Z,98760.69
2023-05-07T03:59:55.348Z,98764.25
2023-05-07T04:02:21.721Z,98759.03
2023-05-07T04:04:50.377Z,98763.03
2023-05-07T04:07:17.219Z,98760.53
2023-05-07T04:09:43.594Z,98759.63
2023-05-07T04:12:09.937Z,98761.88
2023-05-07T04:14:36.311Z,98770.06
2023-05-07T04:17:03.732Z,98765.44
2023-05-07T04:19:30.311Z,98768.28
2023-05-07T04:21:56.680Z,98772.16
2023-05-07T04:24:23.024Z,98771.09
2023-05-07T04:26:49.367Z,98767.06
2023-05-07T04:29:15.697Z,98775.88
2023-05-07T04:31:45.309Z,98769.59
2023-05-07T04:34:12.554Z,98771.22
2023-05-07T04:36:39.436Z,98772.28
2023-05-07T04:39:05.934Z,98776.47
2023-05-07T04:41:34.008Z,98781.34
2023-05-07T04:44:00.509Z,98780.91
2023-05-07T04:46:26.941Z,98780.00
2023-05-07T04:48:53.410Z,98781.69
2023-05-07T04:51:19.774Z,98787.91
2023-05-07T04:53:46.118Z,98782.56
2023-05-07T04:56:12.508Z,98791.63
2023-05-07T04:58:38.967Z,98792.53
2023-05-07T05:01:05.801Z,98797.59
2023-05-07T05:03:32.258Z,98805.31
2023-05-07T05:06:00.758Z,98810.25
2023-05-07T05:08:27.540Z,98807.84
2023-05-07T05:10:53.899Z,98812.06
2023-05-07T05:13:20.428Z,98810.38
2023-05-07T05:15:47.065Z,98808.78
2023-05-07T05:18:13.517Z,98810.38
2023-05-07T05:20:39.998Z,98820.38
2023-05-07T05:23:07.012Z,98825.88
2023-05-07T05:25:33.559Z,98832.69
2023-05-07T05:27:59.973Z,98830.31
2023-05-07T05:30:26.365Z,98823.19
2023-05-07T05:32:52.804Z,98819.47
2023-05-07T05:35:19.285Z,98818.44
2023-05-07T05:37:45.693Z,98807.13
2023-05-07T05:40:12.587Z,98816.78
2023-05-07T05:42:39.200Z,98821.53
2023-05-07T05:45:06.337Z,98823.19
2023-05-07T05:47:32.729Z,98826.78
2023-05-07T05:49:59.103Z,98831.81
2023-05-07T05:52:26.015Z,98837.63
2023-05-07T05:54:52.390Z,98840.63
2023-05-07T05:57:18.836Z,98844.50
2023-05-07T05:59:45.846Z,98837.78
2023-05-07T06:02:12.241Z,98835.41
2023-05-07T06:04:38.662Z,98835.84
2023-05-07T06:07:05.123Z,98829.88
2023-05-07T06:09:31.465Z,98833.44
2023-05-07T06:12:00.349Z,98840.88
2023-05-07T06:14:27.117Z,98844.47
2023-05-07T06:16:53.482Z,98846.72
2023-05-07T06:19:24.028Z,98854.13
2023-05-07T06:21:51.142Z,98860.13
2023-05-07T06:24:17.549Z,98856.94
2023-05-07T06:26:44.266Z,98859.03
2023-05-07T06:29:10.697Z,98869.63
2023-05-07T06:31:37.137Z,98864.09
2023-05-07T06:34:03.575Z,98870.34
2023-05-07T06:36:30.475Z,98877.22
2023-05-07T06:38:56.928Z,98873.66
2023-05-07T06:41:23.325Z,98872.16
2023-05-07T06:43:49.790Z,98872.28
2023-05-07T06:46:16.607Z,98872.16
2023-05-07T06:48:43.138Z,98878.72
2023-05-07T06:51:09.514Z,98876.19
2023-05-07T06:53:36.480Z,98879.16
2023-05-07T06:56:02.933Z,98872.63
2023-05-07T06:58:29.323Z,98869.78
2023-05-07T07:00:55.745Z,98873.06
2023-05-07T07:03:22.183Z,98874.69
2023-05-07T07:05:48.560Z,98878.13
2023-05-07T07:08:15.643Z,98884.22
2023-05-07T07:10:42.020Z,98884.97
2023-05-07T07:13:08.430Z,98885.88
2023-05-07T07:15:34.854Z,98898.50
2023-05-07T07:18:01.295Z,98896.31
2023-05-07T07:20:27.781Z,98896.91
2023-05-07T07:22:54.159Z,98891.22
2023-05-07T07:25:20.591Z,98897.78
2023-05-07T07:27:47.166Z,98889.75
2023-05-07T07:30:14.092Z,98890.31
2023-05-07T07:32:40.561Z,98890.63
2023-05-07T07:35:07.567Z,98898.34
2023-05-07T07:37:34.018Z,98895.81
2023-05-07T07:40:00.929Z,98897.00
2023-05-07T07:42:27.415Z,98902.38
2023-05-07T07:44:53.761Z,98902.81
2023-05-07T07:47:20.147Z,98906.53
2023-05-07T07:49:46.571Z,98901.75
2023-05-07T07:52:12.942Z,98904.00
2023-05-07T07:54:39.334Z,98906.53
2023-05-07T07:57:06.072Z,98914.75
2023-05-07T07:59:32.460Z,98909.34
2023-05-07T08:01:58.919Z,98910.72
2023-05-07T08:04:25.499Z,98916.19
2023-05-07T08:06:51.985Z,98924.19
2023-05-07T08:09:18.381Z,98919.75
2023-05-07T08:11:44.965Z,98927.03
2023-05-07T08:14:12.306Z,98918.59
2023-05-07T08:16:38.767Z,98919.31
2023-05-07T08:19:05.249Z,98920.97
2023-05-07T08:21:34.455Z,98940.38
2023-05-07T08:24:01.179Z,98926.06
2023-05-07T08:26:27.583Z,98922.19
2023-05-07T08:28:53.955Z,98919.19
2023-05-07T08:31:23.538Z,98928.84
2023-05-07T08:33:51.153Z,98928.31
2023-05-07T08:36:17.536Z,98929.66
2023-05-07T08:38:46.570Z,98934.75
2023-05-07T08:41:13.038Z,98944.56
2023-05-07T08:43:42.169Z,98943.50
2023-05-07T08:46:12.390Z,98942.88
2023-05-07T08:48:38.899Z,98945.56
2023-05-07T08:51:06.371Z,98955.88
2023-05-07T08:53:32.819Z,98948.22
2023-05-07T08:55:59.874Z,98948.72
2023-05-07T08:58:26.258Z,98962.31
2023-05-07T09:00:54.111Z,98951.69
2023-05-07T09:03:20.813Z,98972.44
2023-05-07T09:05:47.282Z,98955.72
2023-05-07T09:08:17.074Z,98970.94
2023-05-07T09:10:43.655Z,98964.84
2023-05-07T09:13:11.700Z,98966.00
2023-05-07T09:15:38.176Z,98960.03
2023-05-07T09:18:04.748Z,98959.69
2023-05-07T09:20:31.879Z,98966.19
2023-05-07T09:22:58.219Z,98964.56
2023-05-07T09:25:35.051Z,98963.03
2023-05-07T09:28:02.876Z,98966.03
2023-05-07T09:30:33.440Z,98971.06
2023-05-07T09:33:01.335Z,98968.44
2023-05-07T09:35:28.553Z,98975.13
2023-05-07T09:37:56.633Z,98967.19
2023-05-07T09:40:24.873Z,98971.75
2023-05-07T09:42:51.674Z,98968.69
2023-05-07T09:45:29.754Z,98978.47
2023-05-07T09:47:57.792Z,98969.84
2023-05-07T09:50:30.017Z,98957.88
2023-05-07T09:52:56.924Z,98963.19
2023-05-07T09:55:24.143Z,98966.91
2023-05-07T09:57:52.104Z,98979.34
2023-05-07T10:00:22.247Z,98971.00
2023-05-07T10:02:53.916Z,98978.66
2023-05-07T10:05:21.403Z,98963.16
2023-05-07T10:07:48.565Z,98957.16
2023-05-07T10:10:16.715Z,98967.06
2023-05-07T10:12:43.358Z,98964.03
2023-05-07T10:15:11.646Z,98975.75
2023-05-07T10:17:40.265Z,98960.59
2023-05-07T10:20:08.643Z,98978.38
2023-05-07T10:22:46.403Z,98969.25
2023-05-07T10:25:23.709Z,98970.88
2023-05-07T10:27:51.043Z,98951.22
2023-05-07T10:30:23.462Z,98955.31
2023-05-07T10:32:52.294Z,98960.00
2023-05-07T10:35:23.855Z,98972.38
2023-05-07T10:37:50.599Z,98964.63
2023-05-07T10:40:18.768Z,98963.56
2023-05-07T10:43:10.187Z,98969.22
2023-05-07T10:45:37.451Z,98963.88
2023-05-07T10:48:28.696Z,98967.09
2023-05-07T10:51:22.459Z,98960.56
2023-05-07T10:53:48.825Z,98966.50
2023-05-07T10:56:17.877Z,98959.09
2023-05-07T10:58:44.269Z,98957.78
2023-05-07T11:01:12.210Z,98963.75
2023-05-07T11:04:13.986Z,98961.75
2023-05-07T11:06:40.611Z,98979.88
2023-05-07T11:09:07.013Z,98970.34
2023-05-07T11:11:52.439Z,98973.59
2023-05-07T11:14:43.830Z,98968.19
2023-05-07T11:17:11.124Z,98974.88
2023-05-07T11:19:54.956Z,98974.69
2023-05-07T11:22:33.921Z,98972.00
2023-05-07T11:25:01.061Z,98965.22
2023-05-07T11:27:27.991Z,98957.19
2023-05-07T11:29:54.347Z,98957.19
2023-05-07T11:32:24.859Z,98971.91
2023-05-07T11:34:55.724Z,98958.91
2023-05-07T11:37:23.611Z,98962.31
2023-05-07T11:39:50.721Z,98958.53
2023-05-07T11:42:29.407Z,98965.84
2023-05-07T11:44:55.788Z,98970.53
2023-05-07T11:47:22.419Z,98958.28
2023-05-07T11:49:49.876Z,98971.00
2023-05-07T11:52:17.887Z,98965.66
2023-05-07T11:54:58.870Z,98975.75
2023-05-07T11:57:25.750Z,98967.38
2023-05-07T11:59:59.511Z,98964.81
2023-05-07T12:02:26.874Z,98964.59
2023-05-07T12:04:54.173Z,98964.78
2023-05-07T12:07:20.728Z,98968.81
2023-05-07T12:09:48.367Z,98961.56
2023-05-07T12:12:18.408Z,98972.22
2023-05-07T12:14:46.233Z,98967.50
2023-05-07T12:17:15.547Z,98968.75
2023-05-07T12:19:43.975Z,98968.19
2023-05-07T12:22:11.002Z,98982.00
2023-05-07T12:24:51.358Z,98979.09
2023-05-07T12:27:18.237Z,98981.03
2023-05-07T12:29:48.495Z,98983.03
2023-05-07T12:32:19.288Z,98984.59
2023-05-07T12:34:46.851Z,98972.06
2023-05-07T12:37:13.845Z,98980.06
2023-05-07T12:39:48.628Z,98987.00
2023-05-07T12:42:21.138Z,98981.28
2023-05-07T12:44:47.727Z,98984.81
2023-05-07T12:47:15.943Z,99005.94
2023-05-07T12:49:42.402Z,98999.38
2023-05-07T12:52:08.883Z,99000.38
2023-05-07T12:54:38.580Z,98987.19
2023-05-07T12:57:09.411Z,98986.81
2023-05-07T12:59:42.787Z,98983.47
2023-05-07T13:02:10.275Z,98976.75
2023-05-07T13:04:36.949Z,98980.22
2023-05-07T13:07:03.678Z,98980.47
2023-05-07T13:09:30.271Z,98974.25
2023-05-07T13:11:56.772Z,98979.72
2023-05-07T13:14:23.188Z,98968.22
2023-05-07T13:16:50.327Z,98978.25
2023-05-07T13:19:16.895Z,98983.06
2023-05-07T13:21:43.225Z,98987.94
2023-05-07T13:24:09.614Z,98985.69
2023-05-07T13:26:36.042Z,98975.03
2023-05-07T13:29:02.533Z,98986.28
2023-05-07T13:31:29.069Z,98988.38
2023-05-07T13:33:57.190Z,98983.22
2023-05-07T13:36:23.618Z,98970.53
2023-05-07T13:38:52.585Z,98969.94
2023-05-07T13:41:19.148Z,98977.78
2023-05-07T13:43:45.523Z,98976.16
2023-05-07T13:46:12.360Z,98977.00
2023-05-07T13:48:38.803Z,98974.28
2023-05-07T13:51:05.550Z,98978.31
2023-05-07T13:53:31.888Z,98982.16
2023-05-07T13:55:58.280Z,98978.84
2023-05-07T13:58:24.620Z,98974.50
2023-05-07T14:00:51.106Z,98974.84
2023-05-07T14:03:18.636Z,98993.09
2023-05-07T14:05:45.697Z,98985.28
2023-05-07T14:08:14.815Z,98992.47
2023-05-07T14:10:41.459Z,98984.19
2023-05-07T14:13:07.869Z,98977.44
2023-05-07T14:15:34.383Z,98978.94
2023-05-07T14:18:01.192Z,98979.41
2023-05-07T14:20:27.629Z,98985.78
2023-05-07T14:22:54.002Z,98974.63
2023-05-07T14:25:20.593Z,98966.19
2023-05-07T14:27:47.088Z,98970.28
2023-05-07T14:30:13.737Z,98968.59
2023-05-07T14:32:40.195Z,98982.41
2023-05-07T14:35:06.803Z,98975.59
2023-05-07T14:37:33.174Z,98965.94
2023-05-07T14:39:59.540Z,98974.47
2023-05-07T14:42:26.402Z,98971.16
2023-05-07T14:44:53.949Z,98976.06
2023-05-07T14:47:20.312Z,98972.88
2023-05-07T14:49:46.762Z,98969.81
2023-05-07T14:52:13.251Z,98973.16
2023-05-07T14:54:39.787Z,98972.63
2023-05-07T14:57:07.445Z,98975.41
2023-05-07T14:59:34.137Z,98971.38
2023-05-07T15:02:01.239Z,98981.34
2023-05-07T15:04:29.013Z,98984.72
2023-05-07T15:06:55.386Z,98980.38
2023-05-07T15:09:21.724Z,98983.25
2023-05-07T15:11:48.148Z,98979.88
2023-05-07T15:14:14.582Z,98978.19
2023-05-07T15:16:41.133Z,98981.44
2023-05-07T15:19:07.586Z,98981.97
2023-05-07T15:21:35.672Z,98997.78
2023-05-07T15:24:02.786Z,98984.63
2023-05-07T15:26:30.089Z,98978.78
2023-05-07T15:28:58.229Z,98981.66
2023-05-07T15:31:26.184Z,98985.59
2023-05-07T15:33:52.988Z,98981.88
2023-05-07T15:36:20.930Z,98993.03
2023-05-07T15:38:47.370Z,98983.16
2023-05-07T15:41:13.780Z,99005.94
2023-05-07T15:43:46.925Z,98995.88
2023-05-07T15:46:13.532Z,98991.75
2023-05-07T15:48:40.040Z,98986.97
2023-05-07T15:51:08.819Z,98991.50
2023-05-07T15:53:35.722Z,98989.41
2023-05-07T15:56:02.117Z,98989.72
2023-05-07T15:58:28.476Z,98992.78
2023-05-07T16:00:54.902Z,98995.41
2023-05-07T16:03:22.981Z,98992.06
2023-05-07T16:05:49.433Z,98996.75
2023-05-07T16:08:15.865Z,98995.25
2023-05-07T16:10:42.246Z,98986.00
2023-05-07T16:13:08.681Z,98979.97
2023-05-07T16:15:35.176Z,98997.47
2023-05-07T16:18:01.573Z,98991.09
2023-05-07T16:20:32.185Z,98984.19
2023-05-07T16:22:59.029Z,98999.63
2023-05-07T16:25:25.428Z,98982.81
2023-05-07T16:27:53.064Z,98995.34
2023-05-07T16:30:19.439Z,98971.91
2023-05-07T16:32:45.890Z,98991.19
2023-05-07T16:35:12.555Z,98975.44
2023-05-07T16:37:42.391Z,98988.97
2023-05-07T16:40:09.362Z,98993.63
2023-05-07T16:42:36.426Z,98984.06
2023-05-07T16:45:04.545Z,98983.91
2023-05-07T16:47:31.844Z,98979.34
2023-05-07T16:50:00.489Z,98985.72
2023-05-07T16:52:28.899Z,98985.06
2023-05-07T16:54:58.340Z,98987.28
2023-05-07T16:57:25.637Z,98988.66
2023-05-07T16:59:52.762Z,98986.75
2023-05-07T17:02:19.870Z,98998.22
2023-05-07T17:04:46.287Z,98991.56
2023-05-07T17:07:12.753Z,99000.25
2023-05-07T17:09:39.127Z,99004.28
2023-05-07T17:12:05.803Z,99014.31
2023-05-07T17:14:32.158Z,99011.13
2023-05-07T17:16:58.519Z,99001.59
2023-05-07T17:19:25.026Z,99005.78
2023-05-07T17:21:51.460Z,99017.84
2023-05-07T17:24:17.897Z,99020.59
2023-05-07T17:26:44.249Z,99022.28
2023-05-07T17:29:10.682Z,99023.97
2023-05-07T17:31:37.098Z,99025.16
2023-05-07T17:34:03.568Z,99030.06
2023-05-07T17:36:29.981Z,99036.50
2023-05-07T17:38:56.324Z,99030.31
2023-05-07T17:41:22.866Z,99025.00
2023-05-07T17:43:49.215Z,99032.97
2023-05-07T17:46:15.611Z,99020.16
2023-05-07T17:48:42.076Z,99030.81
2023-05-07T17:51:09.606Z,99022.19
2023-05-07T17:53:36.070Z,99022.88
2023-05-07T17:56:02.492Z,99019.03
2023-05-07T17:58:28.969Z,99025.75
2023-05-07T18:00:55.523Z,99025.03
2023-05-07T18:03:24.358Z,99026.44
2023-05-07T18:05:51.169Z,99027.13
2023-05-07T18:08:17.570Z,99021.78
2023-05-07T18:10:43.952Z,99022.53
2023-05-07T18:13:10.491Z,99031.97
2023-05-07T18:15:36.899Z,99026.75
2023-05-07T18:18:03.679Z,99035.56
2023-05-07T18:20:30.270Z,99036.63
2023-05-07T18:22:56.665Z,99034.97
2023-05-07T18:25:23.203Z,99037.81
2023-05-07T18:27:49.543Z,99028.00
2023-05-07T18:30:16.126Z,99041.56
2023-05-07T18:32:42.556Z,99037.69
2023-05-07T18:35:09.193Z,99037.84
2023-05-07T18:37:35.559Z,99040.53
2023-05-07T18:40:04.052Z,99045.31
2023-05-07T18:42:32.715Z,99045.78
2023-05-07T18:45:01.438Z,99056.03
2023-05-07T18:47:29.636Z,99050.38
2023-05-07T18:49:56.121Z,99052.66
2023-05-07T18:52:22.755Z,99059.22
2023-05-07T18:54:50.791Z,99058.44
2023-05-07T18:57:17.585Z,99061.88
2023-05-07T18:59:44.961Z,99061.56
2023-05-07T19:02:14.429Z,99056.34
2023-05-07T19:04:40.955Z,99063.78
2023-05-07T19:07:07.543Z,99069.00
2023-05-07T19:09:33.904Z,99069.63
2023-05-07T19:12:00.279Z,99067.66
2023-05-07T19:14:26.999Z,99067.50
2023-05-07T19:16:53.368Z,99066.03
2023-05-07T19:19:19.816Z,99072.13
2023-05-07T19:21:49.808Z,99074.03
2023-05-07T19:24:17.047Z,99074.31
2023-05-07T19:26:43.664Z,99078.19
2023-05-07T19:29:17.593Z,99062.72
2023-05-07T19:31:45.539Z,99069.97
2023-05-07T19:34:13.892Z,99075.78
2023-05-07T19:36:40.533Z,99087.13
2023-05-07T19:39:07.064Z,99088.03
2023-05-07T19:41:33.575Z,99091.28
2023-05-07T19:44:00.179Z,99086.38
2023-05-07T19:46:26.739Z,99085.47
2023-05-07T19:48:53.162Z,99078.16
2023-05-07T19:51:19.682Z,99087.69
2023-05-07T19:53:46.155Z,99095.59
2023-05-07T19:56:12.591Z,99102.81
2023-05-07T19:58:39.388Z,99091.53
2023-05-07T20:01:06.254Z,99090.47
2023-05-07T20:03:34.075Z,99105.03
2023-05-07T20:06:01.207Z,99091.63
2023-05-07T20:08:28.320Z,99108.31
2023-05-07T20:10:57.595Z,99099.19
2023-05-07T20:13:24.389Z,99098.78
2023-05-07T20:15:50.929Z,99103.06
2023-05-07T20:18:17.440Z,99110.50
2023-05-07T20:20:45.273Z,99123.88
2023-05-07T20:23:11.664Z,99124.06
2023-05-07T20:25:40.668Z,99117.47
2023-05-07T20:28:07.071Z,99123.38
2023-05-07T20:30:33.458Z,99130.50
2023-05-07T20:32:59.981Z,99127.81
2023-05-07T20:35:26.378Z,99118.13
2023-05-07T20:37:52.736Z,99116.91
2023-05-07T20:40:19.316Z,99126.81
2023-05-07T20:42:45.710Z,99131.31
2023-05-07T20:45:12.207Z,99128.91
2023-05-07T20:47:38.681Z,99126.38
2023-05-07T20:50:05.574Z,99126.97
2023-05-07T20:52:32.031Z,99132.59
2023-05-07T20:54:58.415Z,99135.41
2023-05-07T20:57:24.897Z,99135.50
2023-05-07T20:59:51.328Z,99137.44
2023-05-07T21:02:17.836Z,99136.84
2023-05-07T21:04:46.708Z,99141.16
2023-05-07T21:07:13.138Z,99138.19
2023-05-07T21:09:39.499Z,99148.38
2023-05-07T21:12:06.263Z,99148.22
2023-05-07T21:14:32.621Z,99148.94
2023-05-07T21:17:00.309Z,99149.06
2023-05-07T21:19:26.951Z,99150.63
2023-05-07T21:21:57.641Z,99147.28
2023-05-07T21:24:24.678Z,99150.84
2023-05-07T21:26:53.430Z,99153.94
2023-05-07T21:29:20.207Z,99147.84
2023-05-07T21:31:46.683Z,99152.63
2023-05-07T21:34:13.086Z,99153.13
2023-05-07T21:36:39.543Z,99157.03
2023-05-07T21:39:08.667Z,99156.84
2023-05-07T21:41:36.305Z,99164.91
2023-05-07T21:44:03.220Z,99161.88
2023-05-07T21:46:29.809Z,99163.59
2023-05-07T21:48:56.190Z,99166.41
2023-05-07T21:51:22.662Z,99169.59
2023-05-07T21:53:48.990Z,99165.94
2023-05-07T21:56:15.393Z,99168.94
2023-05-07T21:58:41.735Z,99171.38
2023-05-07T22:01:12.336Z,99170.94
2023-05-07T22:03:39.616Z,99177.28
2023-05-07T22:06:06.508Z,99174.56
2023-05-07T22:08:32.903Z,99178.25
2023-05-07T22:10:59.303Z,99184.66
2023-05-07T22:13:25.790Z,99185.81
2023-05-07T22:15:57.456Z,99182.34
2023-05-07T22:18:25.586Z,99171.75
2023-05-07T22:20:52.230Z,99181.41
2023-05-07T22:23:18.685Z,99170.41
2023-05-07T22:25:45.063Z,99183.84
2023-05-07T22:28:11.394Z,99180.78
2023-05-07T22:30:37.844Z,99181.81
2023-05-07T22:33:04.241Z,99182.63
2023-05-07T22:35:30.682Z,99180.78
2023-05-07T22:37:58.334Z,99169.81
2023-05-07T22:40:24.764Z,99174.78
2023-05-07T22:42:51.115Z,99178.97
2023-05-07T22:45:17.541Z,99165.88
2023-05-07T22:47:43.947Z,99173.44
2023-05-07T22:50:10.977Z,99172.91
2023-05-07T22:52:37.459Z,99175.78
2023-05-07T22:55:04.110Z,99174.94
2023-05-07T22:57:30.498Z,99173.00
2023-05-07T22:59:57.463Z,99179.53
2023-05-07T23:02:24.109Z,99174.84
2023-05-07T23:04:50.617Z,99177.78
2023-05-07T23:07:16.973Z,99180.78
2023-05-07T23:09:43.374Z,99180.03
2023-05-07T23:12:09.768Z,99174.09
2023-05-07T23:14:36.181Z,99178.78
2023-05-07T23:17:02.761Z,99177.00
2023-05-07T23:19:29.232Z,99173.81
2023-05-07T23:21:55.665Z,99168.41
2023-05-07T23:24:22.026Z,99166.84
2023-05-07T23:26:48.387Z,99170.09
2023-05-07T23:29:14.837Z,99166.34
2023-05-07T23:31:41.276Z,99173.47
2023-05-07T23:34:08.186Z,99176.53
2023-05-07T23:36:34.600Z,99173.53
2023-05-07T23:39:00.936Z,99174.84
2023-05-07T23:41:27.369Z,99178.69
2023-05-07T23:43:53.831Z,99169.34
2023-05-07T23:46:20.417Z,99166.31
2023-05-07T23:48:46.812Z,99168.75
2023-05-07T23:51:13.204Z,99173.13
2023-05-07T23:53:39.591Z,99173.13
2023-05-07T23:56:06.155Z,99164.25
2023-05-07T23:58:32.504Z,99167.50
